createdAt,value
2023-08-20T00:03:00.567Z,5.2
2023-08-20T00:06:02.521Z,6
2023-08-20T00:09:04.558Z,8.1
2023-08-20T00:12:06.589Z,6.9
2023-08-20T00:15:08.593Z,5.9
2023-08-20T00:18:10.573Z,5.7
2023-08-20T00:21:12.455Z,6.7
2023-08-20T00:24:14.507Z,6.4
2023-08-20T00:27:16.462Z,6.7
2023-08-20T00:30:18.430Z,6.8
2023-08-20T00:33:20.419Z,6.8
2023-08-20T00:36:22.364Z,7
2023-08-20T00:39:24.298Z,8.5
2023-08-20T00:42:26.268Z,6.3
2023-08-20T00:45:28.307Z,5.6
2023-08-20T00:48:30.172Z,6.6
2023-08-20T00:51:32.227Z,6.4
2023-08-20T00:54:34.214Z,7.8
2023-08-20T00:57:36.267Z,6.1
2023-08-20T01:00:38.086Z,8.8
2023-08-20T01:03:40.057Z,6.8
2023-08-20T01:06:42.014Z,5.7
2023-08-20T01:09:43.980Z,7.6
2023-08-20T01:12:45.990Z,7.5
2023-08-20T01:15:47.989Z,8
2023-08-20T01:18:49.865Z,6.5
2023-08-20T01:21:51.869Z,5.8
2023-08-20T01:24:53.787Z,5.8
2023-08-20T01:27:55.761Z,5.6
2023-08-20T01:30:57.749Z,6.4
2023-08-20T01:33:59.674Z,7
2023-08-20T01:37:01.637Z,5.5
2023-08-20T01:40:03.580Z,9.6
2023-08-20T01:43:05.542Z,7.1
2023-08-20T01:46:07.538Z,6.4
2023-08-20T01:49:09.488Z,6.5
2023-08-20T01:52:11.415Z,6.5
2023-08-20T01:55:13.377Z,5.8
2023-08-20T01:58:15.357Z,7.8
2023-08-20T02:01:17.327Z,8.2
2023-08-20T02:04:19.262Z,7.8
2023-08-20T02:07:21.189Z,11.2
2023-08-20T02:10:23.136Z,9
2023-08-20T02:13:25.095Z,9.4
2023-08-20T02:16:27.030Z,9.1
2023-08-20T02:19:28.979Z,7
2023-08-20T02:22:30.954Z,8.4
2023-08-20T02:25:32.876Z,9.1
2023-08-20T02:28:34.867Z,7
2023-08-20T02:31:36.805Z,8.5
2023-08-20T02:34:38.732Z,9.1
2023-08-20T02:37:40.659Z,5.6
2023-08-20T02:40:42.620Z,7.5
2023-08-20T02:43:44.595Z,8
2023-08-20T02:46:46.542Z,8.2
2023-08-20T02:49:48.494Z,7.2
2023-08-20T02:52:50.458Z,8.4
2023-08-20T02:55:52.426Z,7.9
2023-08-20T02:58:54.373Z,10.8
2023-08-20T03:01:56.348Z,8.1
2023-08-20T03:04:58.413Z,8.7
2023-08-20T03:08:00.298Z,9.2
2023-08-20T03:11:02.263Z,8.1
2023-08-20T03:14:04.207Z,7.4
2023-08-20T03:17:06.166Z,9.4
2023-08-20T03:20:08.125Z,9
2023-08-20T03:23:10.066Z,8.1
2023-08-20T03:26:12.038Z,9.3
2023-08-20T03:29:13.992Z,7.9
2023-08-20T03:32:15.985Z,7.4
2023-08-20T03:35:17.978Z,12
2023-08-20T03:38:19.902Z,10.1
2023-08-20T03:41:21.881Z,7.5
2023-08-20T03:44:23.850Z,8.7
2023-08-20T03:47:25.796Z,10.3
2023-08-20T03:50:27.720Z,8.5
2023-08-20T03:53:29.685Z,8.3
2023-08-20T03:56:31.632Z,12.1
2023-08-20T03:59:33.604Z,9.1
2023-08-20T04:02:35.603Z,10
2023-08-20T04:05:37.519Z,8.9
2023-08-20T04:08:39.464Z,7.8
2023-08-20T04:11:41.442Z,9.1
2023-08-20T04:14:43.419Z,9.7
2023-08-20T04:17:45.354Z,11.9
2023-08-20T04:20:47.375Z,9.1
2023-08-20T04:23:49.379Z,8
2023-08-20T04:26:51.286Z,10.9
2023-08-20T04:29:53.213Z,10.1
2023-08-20T04:32:55.197Z,9.8
2023-08-20T04:35:57.141Z,10.9
2023-08-20T04:38:59.105Z,8
2023-08-20T04:42:01.121Z,12.8
2023-08-20T04:45:03.040Z,12.2
2023-08-20T04:48:05.048Z,10.1
2023-08-20T04:51:07.003Z,9
2023-08-20T04:54:08.932Z,8.6
2023-08-20T04:57:10.944Z,8.7
2023-08-20T05:00:12.858Z,9.9
2023-08-20T05:03:14.853Z,8.6
2023-08-20T05:06:16.768Z,9.5
2023-08-20T05:09:18.709Z,11.3
2023-08-20T05:12:20.731Z,12
2023-08-20T05:15:22.681Z,11.2
2023-08-20T05:18:24.633Z,12.1
2023-08-20T05:21:26.954Z,11.3
2023-08-20T05:24:28.505Z,10.5
2023-08-20T05:27:30.481Z,14.6
2023-08-20T05:30:32.432Z,8.7
2023-08-20T05:33:34.387Z,10.3
2023-08-20T05:36:36.375Z,10
2023-08-20T05:39:39.220Z,10
2023-08-20T05:42:40.319Z,9.1
2023-08-20T05:45:42.305Z,11.6
2023-08-20T05:48:44.261Z,8.1
2023-08-20T05:51:46.186Z,9.4
2023-08-20T05:54:49.281Z,11.6
2023-08-20T05:57:50.118Z,8.2
2023-08-20T06:00:52.085Z,10.1
2023-08-20T06:03:54.079Z,10.7
2023-08-20T06:06:55.996Z,8.8
2023-08-20T06:09:57.993Z,10.2
2023-08-20T06:12:59.950Z,9.8
2023-08-20T06:16:01.909Z,11.1
2023-08-20T06:19:05.139Z,10.8
2023-08-20T06:22:05.826Z,9.7
2023-08-20T06:25:07.766Z,8
2023-08-20T06:28:09.717Z,11.6
2023-08-20T06:31:11.710Z,10.3
2023-08-20T06:34:13.601Z,8.3
2023-08-20T06:37:15.557Z,9.7
2023-08-20T06:40:17.608Z,8.5
2023-08-20T06:43:19.457Z,10.6
2023-08-20T06:46:21.437Z,6.8
2023-08-20T06:49:23.388Z,7.8
2023-08-20T06:52:25.354Z,9.8
2023-08-20T06:55:27.269Z,8.2
2023-08-20T06:58:29.243Z,11.3
2023-08-20T07:01:31.235Z,8.9
2023-08-20T07:04:33.175Z,9.9
2023-08-20T07:07:35.470Z,9.2
2023-08-20T07:10:37.076Z,9.3
2023-08-20T07:13:38.987Z,7.6
2023-08-20T07:16:40.929Z,10.2
2023-08-20T07:19:42.885Z,8.6
2023-08-20T07:22:44.889Z,8.3
2023-08-20T07:25:46.788Z,6.9
2023-08-20T07:28:48.783Z,9.3
2023-08-20T07:31:50.724Z,8.8
2023-08-20T07:34:52.642Z,9.7
2023-08-20T07:37:54.581Z,8.8
2023-08-20T07:40:56.547Z,7.7
2023-08-20T07:43:58.478Z,8.5
2023-08-20T07:47:00.431Z,7
2023-08-20T07:50:02.372Z,9
2023-08-20T07:53:04.351Z,9.6
2023-08-20T07:56:06.262Z,10.2
2023-08-20T07:59:08.216Z,8.6
2023-08-20T08:02:10.213Z,8.9
2023-08-20T08:05:12.175Z,10.1
2023-08-20T08:08:14.064Z,9.1
2023-08-20T08:11:16.027Z,11.8
2023-08-20T08:14:17.987Z,8
2023-08-20T08:17:19.923Z,10.4
2023-08-20T08:20:21.886Z,9.1
2023-08-20T08:23:23.875Z,9.3
2023-08-20T08:26:25.800Z,10.9
2023-08-20T08:29:27.743Z,11.3
2023-08-20T08:32:29.731Z,10.2
2023-08-20T08:35:31.679Z,9.5
2023-08-20T08:38:33.660Z,10.1
2023-08-20T08:41:35.576Z,10.9
2023-08-20T08:44:37.600Z,10.4
2023-08-20T08:47:39.503Z,11.9
2023-08-20T08:50:41.465Z,10.4
2023-08-20T08:53:43.409Z,9.3
2023-08-20T08:56:45.346Z,10
2023-08-20T08:59:47.332Z,13.2
2023-08-20T09:02:49.294Z,11.4
2023-08-20T09:05:51.242Z,11.9
2023-08-20T09:08:53.238Z,10.5
2023-08-20T09:11:55.227Z,10.8
2023-08-20T09:14:57.175Z,12.5
2023-08-20T09:17:59.255Z,11.9
2023-08-20T09:21:01.196Z,9.5
2023-08-20T09:24:03.040Z,11.2
2023-08-20T09:27:04.978Z,9.4
2023-08-20T09:30:06.926Z,14.5
2023-08-20T09:33:08.955Z,9.2
2023-08-20T09:36:10.975Z,11.6
2023-08-20T09:39:12.877Z,10.1
2023-08-20T09:42:14.804Z,10
2023-08-20T09:45:16.811Z,10.3
2023-08-20T09:48:18.716Z,9.4
2023-08-20T09:51:20.696Z,8.5
2023-08-20T09:54:22.679Z,7.9
2023-08-20T09:57:24.647Z,7.8
2023-08-20T10:00:26.562Z,7
2023-08-20T10:03:28.539Z,7.5
2023-08-20T10:06:30.475Z,10.1
2023-08-20T10:09:32.424Z,11.1
2023-08-20T10:12:34.378Z,9.7
2023-08-20T10:15:36.707Z,7.2
2023-08-20T10:18:38.308Z,9.3
2023-08-20T10:21:40.290Z,8.1
2023-08-20T10:24:42.249Z,10.6
2023-08-20T10:27:44.237Z,9.8
2023-08-20T10:30:46.188Z,9.1
2023-08-20T10:33:48.182Z,8.2
2023-08-20T10:36:50.183Z,7.4
2023-08-20T10:39:52.139Z,8.5
2023-08-20T10:42:54.077Z,8.2
2023-08-20T10:45:56.039Z,10.3
2023-08-20T10:48:58.022Z,7.5
2023-08-20T10:51:59.982Z,8.2
2023-08-20T10:55:01.921Z,6.7
2023-08-20T10:58:03.854Z,8.1
2023-08-20T11:01:05.831Z,8.2
2023-08-20T11:04:07.825Z,7.6
2023-08-20T11:07:09.769Z,6.5
2023-08-20T11:10:11.729Z,5
2023-08-20T11:13:13.690Z,4.6
2023-08-20T11:16:15.756Z,5
2023-08-20T11:19:17.599Z,5.6
2023-08-20T11:22:19.557Z,6.1
2023-08-20T11:25:24.258Z,7.1
2023-08-20T11:28:26.216Z,4.9
2023-08-20T11:31:28.287Z,6.1
2023-08-20T11:34:30.173Z,4.3
2023-08-20T11:37:32.112Z,6.1
2023-08-20T11:40:34.072Z,5
2023-08-20T11:43:36.064Z,6.1
2023-08-20T11:46:38.056Z,5.7
2023-08-20T11:49:39.935Z,5.4
2023-08-20T11:52:42.005Z,4.4
2023-08-20T11:55:43.940Z,5.3
2023-08-20T11:58:45.904Z,5.7
2023-08-20T12:01:47.861Z,6.1
2023-08-20T12:04:49.813Z,4.7
2023-08-20T12:07:51.824Z,5.1
2023-08-20T12:10:53.744Z,7.5
2023-08-20T12:13:55.712Z,4.9
2023-08-20T12:16:57.691Z,5.1
2023-08-20T12:19:59.638Z,5.3
2023-08-20T12:23:01.550Z,4.4
2023-08-20T12:26:03.549Z,5
2023-08-20T12:29:05.466Z,4.1
2023-08-20T12:32:07.422Z,5.6
2023-08-20T12:35:09.411Z,4.5
2023-08-20T12:38:11.370Z,5.8
2023-08-20T12:41:13.294Z,4.7
2023-08-20T12:44:15.248Z,5
2023-08-20T12:47:17.190Z,5.3
2023-08-20T12:50:19.156Z,3.9
2023-08-20T12:53:21.143Z,6.6
2023-08-20T12:56:23.055Z,3.9
2023-08-20T12:59:27.247Z,3.8
2023-08-20T13:02:26.984Z,5.6
2023-08-20T13:05:28.936Z,3.2
2023-08-20T13:08:30.884Z,3.1
2023-08-20T13:11:32.844Z,6.2
2023-08-20T13:14:34.809Z,4.7
2023-08-20T13:17:36.940Z,4
2023-08-20T13:20:38.735Z,3.8
2023-08-20T13:23:40.691Z,4.8
2023-08-20T13:26:42.639Z,5.1
2023-08-20T13:29:44.576Z,5.1
2023-08-20T13:32:46.638Z,4.4
2023-08-20T13:35:48.497Z,3.4
2023-08-20T13:38:50.450Z,3.2
2023-08-20T13:41:52.385Z,3.9
2023-08-20T13:44:54.343Z,3.5
2023-08-20T13:47:56.341Z,3.4
2023-08-20T13:50:58.414Z,3.3
2023-08-20T13:54:00.263Z,4.3
2023-08-20T13:57:02.202Z,3.8
2023-08-20T14:00:04.160Z,4.1
2023-08-20T14:03:06.141Z,3.9
2023-08-20T14:06:08.072Z,4.6
2023-08-20T14:09:10.021Z,4
2023-08-20T14:12:11.966Z,4.9
2023-08-20T14:15:13.905Z,3.6
2023-08-20T14:18:15.983Z,3.8
2023-08-20T14:21:17.892Z,3.2
2023-08-20T14:24:19.853Z,3.8
2023-08-20T14:27:21.788Z,5.5
2023-08-20T14:30:23.782Z,4.7
2023-08-20T14:33:25.824Z,4.7
2023-08-20T14:36:27.663Z,5.1
2023-08-20T14:39:29.616Z,5.1
2023-08-20T14:42:31.627Z,3.8
2023-08-20T14:45:33.537Z,4.3
2023-08-20T14:48:35.482Z,4.5
2023-08-20T14:51:37.437Z,4.8
2023-08-20T14:54:39.382Z,7
2023-08-20T14:57:51.163Z,3.9
2023-08-20T15:00:43.358Z,4.7
2023-08-20T15:03:45.238Z,3.2
2023-08-20T15:06:47.234Z,5.1
2023-08-20T15:09:49.211Z,4.5
2023-08-20T15:12:51.148Z,4.3
2023-08-20T15:15:54.206Z,4.8
2023-08-20T15:18:55.081Z,4.3
2023-08-20T15:21:56.999Z,5.2
2023-08-20T15:24:59.024Z,4.6
2023-08-20T15:28:00.946Z,6.1
2023-08-20T15:31:02.979Z,5.7
2023-08-20T15:34:04.855Z,4.3
2023-08-20T15:37:06.810Z,4.8
2023-08-20T15:40:08.769Z,5.3
2023-08-20T15:43:10.729Z,5.4
2023-08-20T15:46:12.723Z,5.5
2023-08-20T15:49:14.717Z,4.4
2023-08-20T15:52:16.596Z,6.9
2023-08-20T15:55:18.579Z,6.1
2023-08-20T15:58:20.535Z,5.7
2023-08-20T16:01:22.531Z,5.2
2023-08-20T16:04:24.453Z,5.8
2023-08-20T16:07:26.427Z,5.3
2023-08-20T16:10:28.406Z,5.7
2023-08-20T16:13:30.328Z,5.4
2023-08-20T16:16:32.330Z,5
2023-08-20T16:19:34.293Z,4.9
2023-08-20T16:22:36.235Z,4.6
2023-08-20T16:25:38.166Z,6.6
2023-08-20T16:28:40.142Z,5
2023-08-20T16:31:42.091Z,5.8
2023-08-20T16:34:44.054Z,5.7
2023-08-20T16:37:46.009Z,4.4
2023-08-20T16:40:47.967Z,6.1
2023-08-20T16:43:49.907Z,4.7
2023-08-20T16:46:51.881Z,6.2
2023-08-20T16:49:53.904Z,5.3
2023-08-20T16:52:55.862Z,5.4
2023-08-20T16:55:57.773Z,4.7
2023-08-20T16:58:59.781Z,6.4
2023-08-20T17:02:01.726Z,5.2
2023-08-20T17:05:03.670Z,6.7
2023-08-20T17:08:05.631Z,6.4
2023-08-20T17:11:07.655Z,6.9
2023-08-20T17:14:09.552Z,6.9
2023-08-20T17:17:11.566Z,7
2023-08-20T17:20:13.583Z,9.7
2023-08-20T17:23:15.469Z,9
2023-08-20T17:26:17.442Z,6.4
2023-08-20T17:29:19.342Z,7.4
2023-08-20T17:32:21.290Z,7.2
2023-08-20T17:33:32.596Z,4.8
2023-08-20T17:49:54.486Z,5.9
2023-08-20T18:06:05.017Z,7.3
2023-08-20T18:49:01.024Z,6.4
2023-08-20T18:50:45.446Z,8.1
2023-08-20T18:56:33.615Z,6.1
2023-08-20T19:24:46.040Z,6.6
2023-08-20T19:31:01.679Z,6
2023-08-20T19:33:23.033Z,9
2023-08-20T19:36:54.341Z,6.1
2023-08-20T19:41:03.368Z,6
2023-08-20T19:47:07.653Z,5.3
2023-08-20T19:51:11.006Z,6.9
2023-08-20T19:52:14.076Z,4.6
2023-08-20T19:59:24.917Z,5.2
2023-08-20T20:03:19.254Z,5.8
2023-08-20T20:06:24.461Z,5.7
2023-08-20T20:09:38.111Z,5.8
2023-08-20T20:22:41.701Z,8.9
2023-08-20T20:25:51.162Z,6.8
2023-08-20T20:28:10.283Z,7.5
2023-08-20T20:33:01.024Z,6.6
2023-08-20T20:35:13.862Z,6.3
2023-08-20T20:38:07.439Z,6.5
2023-08-20T20:40:35.453Z,5.1
2023-08-20T20:43:25.618Z,7.2
2023-08-20T20:49:36.095Z,5.4
2023-08-20T20:52:37.365Z,6.4
2023-08-20T20:56:06.283Z,7
2023-08-20T20:58:44.120Z,5.8
2023-08-20T21:05:10.917Z,6.5
2023-08-20T21:09:01.435Z,5.6
2023-08-20T21:11:42.386Z,5.8
2023-08-20T21:15:51.323Z,5.8
2023-08-20T21:23:17.605Z,6.6
2023-08-20T21:35:01.385Z,6.8
2023-08-20T21:36:17.689Z,8.7
2023-08-20T21:46:54.325Z,7.8
2023-08-20T21:55:37.981Z,4.9
2023-08-20T22:01:13.425Z,8.1
2023-08-20T22:13:18.254Z,5.8
2023-08-20T22:23:40.699Z,6.6
2023-08-20T22:31:24.989Z,7.5
2023-08-20T22:34:22.693Z,6.4
2023-08-20T22:39:49.804Z,6.4
2023-08-20T22:46:08.267Z,6.3
2023-08-20T23:12:11.563Z,8.2
2023-08-20T23:21:46.368Z,8.7
2023-08-20T23:36:23.058Z,8.6
2023-08-20T23:40:50.751Z,7.8
2023-08-20T23:44:06.097Z,9
2023-08-20T23:51:59.865Z,7.9
2023-08-20T23:56:56.029Z,8.4
